Terminal Aerodrome Forecast
Issued by NWS

Home | Current Version | Previous Version | Text Only | Print | Product List | Glossary On
Versions: 1 2 3 4 5 6 7 8 9 10 11 12 13 14 15 16 17 18 19
000
FTUS46 KLOX 260825 AAB
TAFPMD
TAF AMD
KPMD 260825Z 2608/2706 25017G25KT P6SM SKC
     FM261900 23020G30KT P6SM SKC
     FM270300 23014G22KT P6SM SKC=

USA.gov is the U.S. government's official web portal to all federal, state and local government web resources and services.